Time;durP1;ratioP1;P1;durP2;ratioP2;P2;SDS_P1;SDS_P2;PMS_P1;PMS_P2;Temp;Humidity;BMP_temperature;BMP_pressure;BME280_temperature;BME280_humidity;BME280_pressure;Samples;Min_cycle;Max_cycle;Signal;HPM_P1;HPM_P2
2021/06/20 00:01:59;;;;;;;8.83;7.53;;;;;;;25.74;66.53;101111.56;1697120;83;21056;-54
2021/06/20 00:04:26;;;;;;;7.75;6.90;;;;;;;25.73;66.67;101111.22;1717673;83;21047;-54
2021/06/20 00:06:53;;;;;;;7.90;6.30;;;;;;;25.73;66.70;101124.55;1708899;83;21055;-54
2021/06/20 00:09:20;;;;;;;7.87;7.15;;;;;;;25.73;66.76;101123.69;1705645;83;21039;-54
2021/06/20 00:11:49;;;;;;;7.97;7.17;;;;;;;25.72;66.84;101124.16;1701623;83;21518;-53
2021/06/20 00:14:17;;;;;;;7.78;6.97;;;;;;;25.72;66.93;101106.84;1740080;82;21037;-54
2021/06/20 00:16:46;;;;;;;9.35;7.30;;;;;;;25.72;66.99;101112.17;1728566;82;21014;-55
2021/06/20 00:19:13;;;;;;;10.80;7.75;;;;;;;25.74;66.85;101126.22;1706698;83;21015;-59
2021/06/20 00:21:40;;;;;;;12.30;8.60;;;;;;;25.74;66.53;101142.22;1697583;83;21074;-60
2021/06/20 00:24:08;;;;;;;10.05;8.65;;;;;;;25.72;66.21;101141.97;1703937;83;21014;-55
2021/06/20 00:26:34;;;;;;;12.98;7.25;;;;;;;25.71;66.04;101119.82;1700702;83;21051;-59
2021/06/20 00:29:01;;;;;;;9.55;7.03;;;;;;;25.69;65.83;101115.09;1700429;83;21115;-53
2021/06/20 00:31:28;;;;;;;11.93;7.17;;;;;;;25.70;65.54;101111.92;1709197;83;21518;-54
2021/06/20 00:33:55;;;;;;;7.78;6.65;;;;;;;25.71;65.30;101109.64;1701234;84;21049;-54
2021/06/20 00:36:21;;;;;;;9.35;6.15;;;;;;;25.71;65.15;101085.65;1699085;83;21530;-53
2021/06/20 00:38:48;;;;;;;8.28;6.05;;;;;;;25.70;64.89;101066.12;1692140;83;21102;-54
2021/06/20 00:41:15;;;;;;;8.38;6.47;;;;;;;25.71;64.81;101065.18;1713909;83;21043;-54
2021/06/20 00:43:41;;;;;;;8.43;5.85;;;;;;;25.71;64.63;101077.17;1706020;83;21511;-54
2021/06/20 00:46:09;;;;;;;7.53;5.65;;;;;;;25.73;64.51;101057.91;1749776;82;21065;-54
2021/06/20 00:48:37;;;;;;;15.68;6.30;;;;;;;25.74;64.29;101040.92;1728719;82;21055;-53
2021/06/20 00:51:04;;;;;;;12.53;5.78;;;;;;;25.73;64.20;101025.92;1745574;82;21061;-54
2021/06/20 00:53:33;;;;;;;13.40;6.08;;;;;;;25.72;64.06;101006.03;1742321;82;21564;-53
2021/06/20 00:56:00;;;;;;;9.05;5.62;;;;;;;25.70;64.01;101010.16;1692330;83;21034;-54
2021/06/20 00:58:27;;;;;;;10.60;5.40;;;;;;;25.69;63.95;101002.30;1696720;83;21521;-57
2021/06/20 01:00:54;;;;;;;12.82;5.80;;;;;;;25.70;63.87;100999.50;1705060;83;21510;-54
2021/06/20 01:03:21;;;;;;;7.78;5.50;;;;;;;25.72;63.88;101002.88;1751115;82;21085;-53
2021/06/20 01:05:48;;;;;;;10.48;4.85;;;;;;;25.71;63.86;101002.55;1742596;82;21520;-54
2021/06/20 01:08:14;;;;;;;9.30;5.40;;;;;;;25.71;63.78;101000.35;1709579;83;21557;-54
2021/06/20 01:10:43;;;;;;;9.65;5.28;;;;;;;25.66;63.74;100986.53;1696500;83;21023;-53
2021/06/20 01:13:12;;;;;;;6.83;4.50;;;;;;;25.63;63.76;100990.32;1702122;83;21517;-54
2021/06/20 01:15:42;;;;;;;9.03;4.35;;;;;;;25.62;63.52;100977.09;1692724;83;21091;-54
2021/06/20 01:18:09;;;;;;;10.30;4.78;;;;;;;25.60;63.18;100975.89;1732263;81;21026;-54
2021/06/20 01:20:37;;;;;;;7.28;4.35;;;;;;;25.58;63.01;100979.17;1721642;82;21096;-53
2021/06/20 01:23:04;;;;;;;6.42;4.10;;;;;;;25.58;62.81;100986.31;1750528;82;21006;-60
2021/06/20 01:25:31;;;;;;;8.88;3.85;;;;;;;25.56;62.58;101007.76;1703168;83;21074;-58
2021/06/20 01:28:03;;;;;;;6.40;3.22;;;;;;;25.53;62.65;101008.50;1711522;83;21062;-54
2021/06/20 01:30:31;;;;;;;5.17;3.35;;;;;;;25.48;62.91;101004.86;1725207;82;21108;-53
2021/06/20 01:32:59;;;;;;;6.10;3.17;;;;;;;25.44;62.99;101008.73;1736201;82;21002;-54
2021/06/20 01:35:26;;;;;;;7.47;3.65;;;;;;;25.43;63.05;101008.88;1717549;83;21026;-54
2021/06/20 01:37:55;;;;;;;8.48;4.42;;;;;;;25.41;63.28;101014.30;1696525;83;21590;-54
2021/06/20 01:40:23;;;;;;;10.08;4.05;;;;;;;25.41;63.33;101006.81;1691109;83;21022;-54
2021/06/20 01:42:50;;;;;;;6.80;4.35;;;;;;;25.42;63.53;101013.34;1688664;83;21038;-54
2021/06/20 01:45:18;;;;;;;8.25;3.90;;;;;;;25.42;63.74;101021.34;1724426;82;21078;-54
2021/06/20 01:47:45;;;;;;;9.45;3.98;;;;;;;25.41;63.95;101011.63;1735937;82;21057;-54
2021/06/20 01:50:14;;;;;;;6.70;4.12;;;;;;;25.40;64.20;101012.59;1735391;82;21150;-53
2021/06/20 01:52:42;;;;;;;5.22;3.52;;;;;;;25.40;64.39;101008.59;1693944;83;21022;-53
2021/06/20 01:55:11;;;;;;;5.40;4.10;;;;;;;25.40;64.58;101001.93;1698570;83;21612;-59
2021/06/20 01:57:39;;;;;;;7.83;3.62;;;;;;;25.40;64.74;100985.95;1708174;83;21522;-53
2021/06/20 02:00:16;;;;;;;7.97;3.42;;;;;;;25.38;64.95;100979.89;1712026;83;21018;-54
2021/06/20 02:02:43;;;;;;;10.28;4.30;;;;;;;25.36;65.13;100979.17;1693866;83;21525;-54
2021/06/20 02:05:10;;;;;;;7.58;4.03;;;;;;;25.32;65.53;100973.72;1701595;83;21069;-54
2021/06/20 02:07:38;;;;;;;8.75;4.42;;;;;;;25.28;65.94;100975.41;1728939;81;21614;-53
2021/06/20 02:10:11;;;;;;;8.53;5.00;;;;;;;25.25;66.39;100972.97;1727585;82;21034;-54
2021/06/20 02:12:38;;;;;;;8.10;5.08;;;;;;;25.22;66.73;100976.75;1697555;83;21105;-57
2021/06/20 02:15:09;;;;;;;9.28;4.53;;;;;;;25.22;66.86;100970.57;1744221;82;21521;-54
2021/06/20 02:17:38;;;;;;;6.03;4.60;;;;;;;25.20;66.97;100969.37;1699766;83;21030;-54
2021/06/20 02:20:11;;;;;;;6.60;4.75;;;;;;;25.19;67.20;100982.78;1753384;82;21336;-53
2021/06/20 02:22:39;;;;;;;6.92;4.55;;;;;;;25.18;67.41;100999.27;1744022;82;21038;-54
2021/06/20 02:25:13;;;;;;;8.15;4.33;;;;;;;25.16;67.50;100998.55;1737121;82;21018;-54
2021/06/20 02:27:41;;;;;;;8.03;5.10;;;;;;;25.14;67.69;101000.48;1741408;82;21038;-54
2021/06/20 02:30:10;;;;;;;9.25;4.92;;;;;;;25.14;67.74;101005.81;1710020;83;21115;-56
2021/06/20 02:32:37;;;;;;;5.87;4.78;;;;;;;25.16;67.69;101013.19;1711766;83;21010;-54
2021/06/20 02:35:07;;;;;;;9.45;4.75;;;;;;;25.20;67.50;101026.63;1694723;83;21141;-52
2021/06/20 02:37:34;;;;;;;7.65;4.83;;;;;;;25.23;67.39;101030.84;1726956;82;21090;-53
2021/06/20 02:40:01;;;;;;;10.13;4.83;;;;;;;25.24;67.38;101032.08;1696255;83;21071;-53
2021/06/20 02:42:28;;;;;;;5.58;3.98;;;;;;;25.25;67.45;101032.42;1714445;83;21083;-53
2021/06/20 02:44:55;;;;;;;8.43;4.70;;;;;;;25.25;67.39;101043.08;1701510;83;21049;-53
2021/06/20 02:47:22;;;;;;;5.42;3.55;;;;;;;25.22;67.39;101048.66;1702673;83;21089;-53
2021/06/20 02:49:49;;;;;;;4.78;3.65;;;;;;;25.21;67.42;101050.95;1704045;83;21546;-52
2021/06/20 02:52:16;;;;;;;4.85;2.80;;;;;;;25.20;67.30;101053.27;1701438;83;21046;-53
2021/06/20 02:54:50;;;;;;;4.00;3.02;;;;;;;25.17;67.28;101061.47;1703767;83;21047;-54
2021/06/20 02:57:23;;;;;;;4.08;2.80;;;;;;;25.16;67.17;101059.80;1707172;83;21073;-53
2021/06/20 02:59:51;;;;;;;3.80;2.58;;;;;;;25.17;66.94;101064.14;1702668;83;21531;-53
2021/06/20 03:02:18;;;;;;;5.95;2.87;;;;;;;25.15;66.72;101051.42;1728658;82;21580;-53
2021/06/20 03:04:46;;;;;;;3.50;2.40;;;;;;;25.16;66.61;101043.81;1727796;82;21027;-54
2021/06/20 03:07:13;;;;;;;3.33;2.33;;;;;;;25.15;66.04;101039.44;1731528;82;21019;-57
2021/06/20 03:09:40;;;;;;;5.35;2.67;;;;;;;25.14;65.08;101037.77;1701750;83;21522;-53
2021/06/20 03:12:09;;;;;;;5.42;2.10;;;;;;;25.11;64.54;101029.14;1698574;83;21577;-54
2021/06/20 03:14:35;;;;;;;6.83;1.77;;;;;;;25.09;64.07;101022.61;1702012;83;21533;-55
2021/06/20 03:17:04;;;;;;;3.35;1.40;;;;;;;25.06;63.07;101020.17;1704759;83;21043;-54
2021/06/20 03:19:32;;;;;;;2.75;1.67;;;;;;;25.01;62.25;101010.37;1691046;83;21031;-54
2021/06/20 03:22:01;;;;;;;3.65;2.17;;;;;;;24.98;62.14;100999.95;1701177;83;21034;-54
2021/06/20 03:24:30;;;;;;;2.30;1.67;;;;;;;24.94;62.22;100993.17;1701355;83;21020;-54
2021/06/20 03:26:57;;;;;;;5.03;2.10;;;;;;;24.90;62.22;100994.38;1696601;83;21072;-56
2021/06/20 03:29:24;;;;;;;1.55;1.32;;;;;;;24.87;62.31;100994.63;1707922;83;21027;-54
2021/06/20 03:31:51;;;;;;;2.80;1.10;;;;;;;24.85;62.33;100997.89;1730770;82;21026;-54
2021/06/20 03:34:19;;;;;;;2.75;1.20;;;;;;;24.83;61.91;100991.33;1714915;83;21526;-55
2021/06/20 03:36:46;;;;;;;1.50;1.20;;;;;;;24.81;61.32;100997.77;1714951;83;21023;-54
2021/06/20 03:39:14;;;;;;;2.55;1.07;;;;;;;24.78;60.88;100996.66;1705630;83;21014;-54
2021/06/20 03:41:41;;;;;;;2.50;1.40;;;;;;;24.75;60.56;100995.58;1706649;83;21050;-61
2021/06/20 03:44:08;;;;;;;1.32;1.00;;;;;;;24.74;60.55;100989.87;1691817;83;21018;-54
2021/06/20 03:46:35;;;;;;;2.37;1.50;;;;;;;24.74;60.61;100986.73;1697952;83;21507;-54
2021/06/20 03:49:03;;;;;;;1.72;1.15;;;;;;;24.74;60.63;100993.87;1704948;83;21062;-58
2021/06/20 03:51:31;;;;;;;2.87;1.32;;;;;;;24.76;60.84;100989.27;1685802;83;21093;-54
2021/06/20 03:53:58;;;;;;;3.33;1.45;;;;;;;24.78;60.81;100988.67;1714151;83;21561;-53
2021/06/20 03:56:24;;;;;;;3.02;1.35;;;;;;;24.80;60.97;100990.73;1712784;83;21049;-59
2021/06/20 03:58:51;;;;;;;2.20;1.10;;;;;;;24.79;60.83;100994.38;1698177;83;21594;-53
2021/06/20 04:01:18;;;;;;;1.98;1.30;;;;;;;24.79;60.79;101011.67;1711306;83;21042;-54
2021/06/20 04:03:44;;;;;;;2.80;1.17;;;;;;;24.77;60.77;101024.25;1697948;83;22646;-53
2021/06/20 04:06:11;;;;;;;1.77;1.30;;;;;;;24.76;60.93;101031.86;1740675;82;21006;-53
2021/06/20 04:08:39;;;;;;;5.42;1.45;;;;;;;24.75;61.08;101032.84;1726481;82;21039;-54
2021/06/20 04:11:07;;;;;;;4.55;1.20;;;;;;;24.75;61.12;101031.51;1690772;83;21089;-54
2021/06/20 04:13:34;;;;;;;3.02;1.50;;;;;;;24.76;61.03;101031.86;1731021;82;21030;-54
2021/06/20 04:16:00;;;;;;;4.70;2.08;;;;;;;24.74;61.21;101031.13;1746122;82;21014;-54
2021/06/20 04:18:27;;;;;;;3.42;1.45;;;;;;;24.74;61.34;101025.80;1709898;83;21026;-55
2021/06/20 04:20:54;;;;;;;1.95;1.50;;;;;;;24.72;61.28;101025.04;1700934;83;21039;-54
2021/06/20 04:23:21;;;;;;;3.17;1.60;;;;;;;24.69;61.34;101026.11;1706263;83;21031;-54
2021/06/20 04:25:49;;;;;;;3.05;1.50;;;;;;;24.68;61.23;101028.90;1729150;82;21098;-54
2021/06/20 04:28:16;;;;;;;3.27;1.57;;;;;;;24.66;61.47;101024.17;1698152;83;21063;-53
2021/06/20 04:30:43;;;;;;;6.05;1.70;;;;;;;24.63;61.60;101031.91;1704013;83;21023;-53
2021/06/20 04:33:09;;;;;;;7.75;2.17;;;;;;;24.63;61.88;101023.06;1700461;83;21046;-54
2021/06/20 04:35:36;;;;;;;2.90;1.80;;;;;;;24.62;62.12;101026.70;1736844;82;21004;-54
2021/06/20 04:38:02;;;;;;;6.70;2.15;;;;;;;24.64;62.13;101031.42;1741519;82;21078;-54
2021/06/20 04:40:29;;;;;;;3.27;1.82;;;;;;;24.63;62.32;101030.58;1743391;82;21049;-54
2021/06/20 04:43:09;;;;;;;6.28;2.00;;;;;;;24.64;62.29;101027.44;1732565;82;21089;-58
2021/06/20 04:45:34;;;;;;;2.55;1.95;;;;;;;24.66;62.35;101026.84;1726250;81;21556;-53
2021/06/20 04:48:01;;;;;;;4.20;2.00;;;;;;;24.69;62.22;101030.61;1727935;82;21061;-54
2021/06/20 04:50:27;;;;;;;5.03;2.00;;;;;;;24.73;62.14;101034.73;1733892;82;21002;-57
2021/06/20 04:52:54;;;;;;;4.47;2.30;;;;;;;24.78;62.22;101031.26;1711940;83;21039;-54
2021/06/20 04:55:21;;;;;;;5.60;1.90;;;;;;;24.83;62.15;101025.11;1701233;83;21095;-54
2021/06/20 04:57:48;;;;;;;7.65;2.17;;;;;;;24.90;62.00;101030.31;1727154;82;21501;-54
2021/06/20 05:00:17;;;;;;;4.20;2.02;;;;;;;24.94;62.03;101035.77;1729866;82;21067;-57
2021/06/20 05:02:44;;;;;;;4.72;2.00;;;;;;;25.02;61.99;101028.03;1729260;82;21572;-54
2021/06/20 05:05:12;;;;;;;2.87;1.82;;;;;;;25.09;61.89;101017.28;1738910;82;21050;-54
2021/06/20 05:07:39;;;;;;;4.55;1.85;;;;;;;25.20;61.87;101015.12;1715589;82;20999;-54
2021/06/20 05:10:08;;;;;;;3.52;2.12;;;;;;;25.34;61.65;101010.88;1730269;82;21052;-53
2021/06/20 05:12:35;;;;;;;5.83;2.02;;;;;;;25.51;61.28;101013.92;1730053;82;21517;-55
2021/06/20 05:15:02;;;;;;;2.17;1.87;;;;;;;25.68;60.96;101021.43;1747388;82;21065;-55
2021/06/20 05:17:29;;;;;;;4.08;2.20;;;;;;;25.86;60.75;101014.27;1740971;82;21545;-55
2021/06/20 05:19:56;;;;;;;4.70;2.12;;;;;;;26.06;60.20;101017.48;1736890;81;21094;-54
2021/06/20 05:22:22;;;;;;;5.58;2.05;;;;;;;26.23;59.75;101017.84;1703221;83;21549;-54
2021/06/20 05:24:49;;;;;;;4.58;1.95;;;;;;;26.41;59.15;101014.11;1717304;83;21038;-53
2021/06/20 05:27:16;;;;;;;6.78;2.27;;;;;;;26.55;58.43;101017.80;1691869;83;21479;-55
2021/06/20 05:29:43;;;;;;;7.37;2.47;;;;;;;26.66;57.79;101019.09;1737323;81;21042;-57
2021/06/20 05:32:09;;;;;;;5.83;2.22;;;;;;;26.72;57.35;101011.93;1713385;83;21019;-55
2021/06/20 05:34:36;;;;;;;6.62;2.17;;;;;;;26.77;56.49;101005.70;1699448;83;21034;-54
2021/06/20 05:37:03;;;;;;;5.05;2.12;;;;;;;26.73;56.31;101005.59;1693977;83;21529;-55
2021/06/20 05:39:30;;;;;;;7.90;2.30;;;;;;;26.73;56.31;101005.59;1704491;83;21046;-60
2021/06/20 05:41:57;;;;;;;3.90;1.90;;;;;;;26.65;56.36;101004.04;1709816;83;21069;-52
2021/06/20 05:44:24;;;;;;;6.45;2.62;;;;;;;26.65;56.55;101006.70;1707113;83;21148;-53
2021/06/20 05:46:51;;;;;;;5.78;3.33;;;;;;;26.73;56.16;101013.61;1713268;83;21014;-53
2021/06/20 05:49:18;;;;;;;5.67;2.10;;;;;;;26.73;56.16;101013.61;1697776;83;21026;-55
2021/06/20 05:51:45;;;;;;;5.17;2.58;;;;;;;26.80;55.82;101004.11;1691348;83;21074;-54
2021/06/20 05:54:12;;;;;;;5.47;2.37;;;;;;;26.80;55.82;101004.11;1712250;83;21074;-55
2021/06/20 05:56:39;;;;;;;5.00;2.52;;;;;;;26.91;55.97;101009.87;1700634;83;21020;-54
2021/06/20 05:59:06;;;;;;;5.58;2.80;;;;;;;27.00;55.61;101009.92;1703817;82;21015;-54
2021/06/20 06:01:35;;;;;;;5.35;2.22;;;;;;;27.12;55.64;101019.55;1702724;83;21006;-52
2021/06/20 06:04:03;;;;;;;5.67;2.67;;;;;;;27.26;54.90;101013.02;1733395;81;21596;-55
2021/06/20 06:06:31;;;;;;;3.30;1.80;;;;;;;27.37;54.99;101016.47;1736256;80;20999;-54
2021/06/20 06:08:58;;;;;;;2.98;1.92;;;;;;;27.48;54.32;101010.19;1735009;81;21021;-54
2021/06/20 06:11:24;;;;;;;4.03;2.05;;;;;;;27.57;53.74;101015.22;1739665;81;21013;-54
2021/06/20 06:13:51;;;;;;;6.80;2.40;;;;;;;27.65;53.75;101023.41;1743907;81;21640;-53
2021/06/20 06:16:18;;;;;;;6.90;2.30;;;;;;;27.75;53.68;101024.27;1739210;81;21050;-57
2021/06/20 06:18:44;;;;;;;7.83;2.58;;;;;;;27.92;53.57;101017.79;1744102;81;21015;-55
2021/06/20 06:21:11;;;;;;;4.20;2.20;;;;;;;28.14;53.13;101011.36;1747270;80;21050;-56
2021/06/20 06:23:38;;;;;;;3.80;2.10;;;;;;;28.38;52.54;101011.78;1745566;81;21541;-54
2021/06/20 06:26:05;;;;;;;5.58;2.27;;;;;;;28.60;52.26;101008.88;1738022;82;21111;-55
2021/06/20 06:28:32;;;;;;;7.40;2.30;;;;;;;28.76;51.61;101009.13;1746696;81;21082;-53
2021/06/20 06:30:59;;;;;;;7.28;2.65;;;;;;;28.82;50.75;101001.86;1738832;81;21047;-54
2021/06/20 06:33:26;;;;;;;11.22;2.33;;;;;;;28.82;50.75;101002.34;1749272;80;21082;-54
2021/06/20 06:35:55;;;;;;;6.20;2.20;;;;;;;28.78;50.05;100996.44;1738065;80;21018;-55
2021/06/20 06:38:22;;;;;;;6.40;2.50;;;;;;;28.66;50.34;100982.86;1750853;80;21051;-54
2021/06/20 06:40:50;;;;;;;4.47;2.90;;;;;;;28.53;50.85;100978.25;1761724;80;21023;-55
2021/06/20 06:43:17;;;;;;;5.80;2.40;;;;;;;28.44;51.33;100979.09;1751169;80;21047;-53
2021/06/20 06:45:44;;;;;;;5.85;2.33;;;;;;;28.37;50.71;100979.33;1745124;80;21109;-54
2021/06/20 06:48:12;;;;;;;6.55;2.30;;;;;;;28.27;51.17;100981.17;1757367;80;21493;-54
2021/06/20 06:50:39;;;;;;;6.12;2.72;;;;;;;28.22;51.21;100984.75;1748016;80;20979;-55
2021/06/20 06:53:06;;;;;;;3.85;2.12;;;;;;;28.14;50.98;100992.63;1742491;81;21078;-57
2021/06/20 06:55:33;;;;;;;9.08;3.17;;;;;;;28.05;51.50;100988.11;1734260;81;21035;-54
2021/06/20 06:58:01;;;;;;;6.42;2.58;;;;;;;27.99;51.55;100981.98;1748108;81;21618;-55
2021/06/20 07:00:28;;;;;;;9.03;2.90;;;;;;;27.94;51.59;100983.72;1752436;81;21479;-57
2021/06/20 07:02:55;;;;;;;8.13;2.70;;;;;;;27.91;51.73;100991.16;1745107;81;21024;-57
2021/06/20 07:05:22;;;;;;;10.43;3.20;;;;;;;27.90;52.03;100992.98;1752217;80;21081;-54
2021/06/20 07:07:49;;;;;;;8.38;2.33;;;;;;;27.92;52.50;100990.19;1744822;81;21560;-54
2021/06/20 07:10:16;;;;;;;6.40;2.30;;;;;;;28.01;52.31;100994.72;1756082;80;21019;-54
2021/06/20 07:12:43;;;;;;;11.05;3.00;;;;;;;28.07;52.22;100982.98;1740019;80;21027;-54
2021/06/20 07:15:13;;;;;;;7.50;2.58;;;;;;;28.10;52.03;100985.39;1743582;80;21057;-55
2021/06/20 07:17:40;;;;;;;5.60;2.67;;;;;;;28.11;51.65;100984.88;1747546;80;21092;-54
2021/06/20 07:20:11;;;;;;;9.33;2.65;;;;;;;28.14;51.71;100978.77;1749667;80;21059;-59
2021/06/20 07:22:38;;;;;;;11.38;3.05;;;;;;;28.24;51.66;100969.39;1754511;80;21038;-58
2021/06/20 07:25:08;;;;;;;10.63;3.33;;;;;;;28.34;51.42;100978.78;1739982;81;21070;-58
2021/06/20 07:27:35;;;;;;;9.75;2.83;;;;;;;28.38;50.94;100972.98;1742171;81;21558;-58
2021/06/20 07:30:11;;;;;;;9.43;3.80;;;;;;;28.40;51.32;100972.34;1752617;80;21049;-54
2021/06/20 07:32:38;;;;;;;6.72;2.92;;;;;;;28.40;51.61;100971.00;1741030;80;21042;-56
2021/06/20 07:35:07;;;;;;;6.55;2.98;;;;;;;28.43;51.84;100978.77;1747830;81;21122;-55
2021/06/20 07:37:34;;;;;;;7.25;3.40;;;;;;;28.44;51.69;100981.77;1749072;80;21541;-54
2021/06/20 07:40:02;;;;;;;10.28;3.42;;;;;;;28.42;51.12;100982.41;1736005;82;21046;-58
2021/06/20 07:42:29;;;;;;;11.18;3.80;;;;;;;28.32;51.12;100976.22;1746030;81;21050;-55
2021/06/20 07:44:56;;;;;;;7.20;3.67;;;;;;;28.23;51.77;100977.09;1739321;81;21035;-54
2021/06/20 07:47:23;;;;;;;6.47;3.37;;;;;;;28.20;51.94;100986.72;1744312;81;21022;-56
2021/06/20 07:49:49;;;;;;;11.22;3.87;;;;;;;28.16;52.14;100993.34;1739054;82;21016;-55
2021/06/20 07:52:16;;;;;;;14.03;4.45;;;;;;;28.13;52.54;100997.65;1731828;80;21113;-54
2021/06/20 07:54:49;;;;;;;7.40;3.20;;;;;;;28.09;52.43;100995.72;1741600;81;21130;-53
2021/06/20 07:57:13;;;;;;;8.58;3.55;;;;;;;28.05;52.32;101004.16;1740743;81;21102;-54
2021/06/20 07:59:40;;;;;;;10.20;3.70;;;;;;;27.96;52.30;101005.86;1740479;80;21711;-54
2021/06/20 08:02:07;;;;;;;11.60;3.25;;;;;;;27.91;52.52;101012.07;1744887;80;21000;-57
2021/06/20 08:04:34;;;;;;;8.30;3.20;;;;;;;27.91;52.63;101015.23;1748054;81;21056;-56
2021/06/20 08:07:01;;;;;;;8.53;3.10;;;;;;;27.91;52.75;101021.44;1753552;80;21522;-55
2021/06/20 08:09:28;;;;;;;8.25;3.37;;;;;;;27.93;52.11;101018.61;1739984;80;21062;-54
2021/06/20 08:11:54;;;;;;;10.78;3.95;;;;;;;27.93;51.74;101024.81;1741841;81;21506;-54
2021/06/20 08:14:21;;;;;;;7.15;3.10;;;;;;;27.97;51.97;101026.74;1743147;80;21585;-54
2021/06/20 08:16:48;;;;;;;7.97;2.98;;;;;;;28.02;51.52;101025.85;1746498;80;21035;-54
2021/06/20 08:19:15;;;;;;;9.15;3.42;;;;;;;28.03;51.48;101032.88;1743269;81;21050;-55
2021/06/20 08:21:43;;;;;;;7.12;2.95;;;;;;;28.05;51.21;101033.59;1745648;80;21562;-58
2021/06/20 08:24:10;;;;;;;7.50;2.77;;;;;;;28.03;50.86;101040.91;1732150;81;21016;-58
2021/06/20 08:26:38;;;;;;;6.62;2.60;;;;;;;28.01;50.76;101046.88;1739579;81;21506;-57
2021/06/20 08:29:05;;;;;;;10.13;3.52;;;;;;;27.97;50.63;101046.81;1745606;81;21019;-57
2021/06/20 08:31:33;;;;;;;7.83;3.27;;;;;;;27.92;50.54;101055.23;1743011;80;21026;-58
2021/06/20 08:33:59;;;;;;;8.55;2.80;;;;;;;27.90;50.79;101063.03;1752514;80;21550;-54
2021/06/20 08:36:27;;;;;;;14.28;3.60;;;;;;;27.86;50.75;101062.44;1742655;80;21045;-64
2021/06/20 08:38:56;;;;;;;9.43;3.83;;;;;;;27.80;51.20;101053.63;1736163;81;21522;-55
2021/06/20 08:41:22;;;;;;;7.97;3.72;;;;;;;27.76;50.98;101062.91;1738104;81;21029;-56
2021/06/20 08:43:51;;;;;;;6.72;3.55;;;;;;;27.72;51.30;101063.33;1746298;80;21033;-54
2021/06/20 08:46:17;;;;;;;16.12;3.15;;;;;;;27.70;51.61;101072.80;1744976;81;21029;-53
2021/06/20 08:48:44;;;;;;;12.50;3.90;;;;;;;27.68;51.43;101067.23;1728768;80;21094;-53
2021/06/20 08:51:11;;;;;;;9.50;4.05;;;;;;;27.65;51.78;101065.70;1757187;80;21044;-53
2021/06/20 08:53:38;;;;;;;8.83;3.80;;;;;;;27.66;51.93;101062.51;1744050;81;21561;-64
2021/06/20 08:56:05;;;;;;;13.20;4.00;;;;;;;27.69;52.28;101061.77;1740108;80;21022;-54
2021/06/20 08:58:33;;;;;;;8.13;3.70;;;;;;;27.75;52.34;101061.23;1748809;81;21009;-54
2021/06/20 09:01:03;;;;;;;10.63;4.58;;;;;;;27.81;52.26;101060.68;1733959;81;21010;-54
2021/06/20 09:03:47;;;;;;;11.60;3.47;;;;;;;27.89;52.00;101059.98;1751325;80;20990;-54
2021/06/20 09:06:22;;;;;;;16.77;4.08;;;;;;;27.95;51.76;101069.66;1736636;80;21553;-55
2021/06/20 09:09:00;;;;;;;18.25;5.97;;;;;;;28.03;51.45;101063.16;1739110;81;21322;-54
2021/06/20 09:11:40;;;;;;;13.00;3.83;;;;;;;28.11;51.21;101062.45;1739010;80;21037;-60
2021/06/20 09:14:13;;;;;;;8.45;3.05;;;;;;;28.19;51.00;101067.48;1750247;80;21041;-55
2021/06/20 09:16:54;;;;;;;8.93;3.30;;;;;;;28.27;50.76;101062.80;1756639;80;21644;-55
2021/06/20 09:19:31;;;;;;;11.63;4.30;;;;;;;28.32;50.94;101063.20;1742977;80;21015;-58
2021/06/20 09:22:01;;;;;;;13.98;3.83;;;;;;;28.37;51.02;101067.66;1739064;80;21505;-56
2021/06/20 09:24:28;;;;;;;16.05;4.55;;;;;;;28.43;51.06;101060.89;1735101;80;21041;-55
2021/06/20 09:26:57;;;;;;;13.08;4.62;;;;;;;28.46;50.55;101062.78;1771836;80;21537;-54
2021/06/20 09:29:36;;;;;;;17.95;5.62;;;;;;;28.47;50.47;101054.27;1751338;80;21038;-55
2021/06/20 09:32:07;;;;;;;9.48;3.00;;;;;;;28.47;50.56;101044.91;1754072;80;21088;-55
2021/06/20 09:34:46;;;;;;;12.43;3.70;;;;;;;28.48;50.76;101044.75;1708294;82;21034;-56
2021/06/20 09:37:14;;;;;;;17.92;4.05;;;;;;;28.46;50.27;101044.05;1708071;82;21058;-55
2021/06/20 09:39:41;;;;;;;17.25;4.28;;;;;;;28.45;50.67;101041.03;1700922;82;21522;-56
2021/06/20 09:42:14;;;;;;;11.90;4.00;;;;;;;28.43;50.79;101034.13;1698204;82;21047;-54
2021/06/20 09:44:49;;;;;;;13.30;3.52;;;;;;;28.46;50.99;101036.02;1714357;82;21483;-54
2021/06/20 09:47:17;;;;;;;16.85;5.10;;;;;;;28.50;51.00;101038.77;1704857;83;21058;-55
2021/06/20 09:49:46;;;;;;;14.58;3.35;;;;;;;28.54;51.08;101034.81;1701937;83;21078;-56
2021/06/20 09:52:15;;;;;;;14.35;4.22;;;;;;;28.58;51.19;101032.27;1703825;82;21120;-56
2021/06/20 09:54:56;;;;;;;16.40;4.25;;;;;;;28.63;51.31;101031.82;1699306;83;21084;-55
2021/06/20 09:57:23;;;;;;;16.55;4.20;;;;;;;28.67;51.51;101023.36;1664839;85;21075;-54
2021/06/20 09:59:59;;;;;;;14.00;3.83;;;;;;;28.72;50.76;101021.60;1659010;85;21037;-55
2021/06/20 10:02:29;;;;;;;15.88;4.10;;;;;;;28.73;50.98;101018.77;1604375;87;21115;-56
2021/06/20 10:04:56;;;;;;;17.65;3.02;;;;;;;28.74;50.38;101021.82;1610782;87;21133;-55
2021/06/20 10:07:27;;;;;;;17.42;3.22;;;;;;;28.70;50.36;101016.40;1613124;87;21122;-56
2021/06/20 10:09:54;;;;;;;;;;;;;;;28.67;49.97;101013.99;1612926;87;21669;-56
2021/06/20 10:12:22;;;;;;;11.85;3.37;;;;;;;28.61;49.90;101012.38;1613120;87;20165;-55
2021/06/20 10:14:54;;;;;;;12.18;3.87;;;;;;;28.54;50.28;101013.39;1614557;86;21127;-55
2021/06/20 10:17:34;;;;;;;16.80;3.25;;;;;;;28.50;50.08;101007.98;1610204;87;21098;-55
2021/06/20 10:20:08;;;;;;;13.65;3.58;;;;;;;28.42;49.94;101013.19;1610965;87;21054;-59
2021/06/20 10:22:40;;;;;;;17.07;3.95;;;;;;;28.37;50.85;101011.45;1572729;89;21581;-55
2021/06/20 10:25:10;;;;;;;10.55;2.87;;;;;;;28.36;51.18;101015.10;1587258;88;21655;-59
2021/06/20 10:27:44;;;;;;;12.98;3.37;;;;;;;28.39;50.93;101010.81;1594605;89;21633;-55
2021/06/20 10:30:19;;;;;;;13.55;3.30;;;;;;;28.41;51.11;101008.84;1596515;89;21115;-55
2021/06/20 10:32:47;;;;;;;13.95;3.12;;;;;;;28.46;51.65;101014.60;1592848;88;21164;-58
2021/06/20 10:35:20;;;;;;;9.68;3.50;;;;;;;28.51;51.33;101007.00;1596458;88;21066;-55
2021/06/20 10:37:49;;;;;;;18.50;4.10;;;;;;;28.59;51.37;101001.81;1594663;88;21150;-56
2021/06/20 10:40:31;;;;;;;14.75;3.47;;;;;;;28.67;51.65;100999.27;1597554;88;21158;-55
2021/06/20 10:43:00;;;;;;;12.33;2.92;;;;;;;28.75;51.11;100999.39;1593115;88;21029;-55
2021/06/20 10:45:37;;;;;;;17.60;4.78;;;;;;;28.79;50.86;100992.75;1600117;88;21155;-58
2021/06/20 10:48:21;;;;;;;16.30;3.58;;;;;;;28.83;50.83;100999.52;1591532;89;21491;-55
2021/06/20 10:50:57;;;;;;;15.38;3.70;;;;;;;28.87;50.69;100994.21;1586099;88;21066;-62
2021/06/20 10:53:26;;;;;;;22.20;3.42;;;;;;;28.92;50.87;101001.34;1530655;92;21084;-61
2021/06/20 10:55:59;;;;;;;14.13;3.35;;;;;;;28.95;50.67;101002.37;1538683;92;21058;-60
2021/06/20 10:58:31;;;;;;;18.65;4.90;;;;;;;28.97;50.66;101008.42;1537527;92;21066;-56
2021/06/20 11:01:11;;;;;;;14.60;3.08;;;;;;;28.97;50.47;101006.27;1564293;91;21138;-56
2021/06/20 11:03:52;;;;;;;23.47;4.58;;;;;;;28.98;50.76;101007.94;1579407;89;22388;-55
2021/06/20 11:06:24;;;;;;;17.42;3.83;;;;;;;28.97;50.67;101009.77;1512724;94;21078;-58
2021/06/20 11:09:00;;;;;;;17.62;3.90;;;;;;;28.97;50.65;101007.09;1480688;95;21671;-58
2021/06/20 11:11:51;;;;;;;21.82;4.20;;;;;;;28.97;50.62;101004.41;1484221;95;21155;-58
2021/06/20 11:14:20;;;;;;;21.30;4.17;;;;;;;28.97;50.34;101007.09;1491976;93;21134;-58
2021/06/20 11:16:50;;;;;;;29.00;4.10;;;;;;;28.96;50.37;101006.75;1500957;94;21153;-61
2021/06/20 11:19:26;;;;;;;16.67;4.33;;;;;;;28.95;50.65;101016.28;1484603;95;21300;-56
2021/06/20 11:22:08;;;;;;;16.37;4.03;;;;;;;28.94;50.64;101006.05;1486623;95;21094;-56
2021/06/20 11:24:49;;;;;;;23.30;4.87;;;;;;;28.94;50.34;101002.03;1454703;96;21196;-55
2021/06/20 11:27:19;;;;;;;21.20;4.78;;;;;;;28.94;50.41;101008.73;1427050;100;21139;-54
2021/06/20 11:29:55;;;;;;;14.23;4.03;;;;;;;28.94;50.50;101012.75;1427578;99;21161;-56